createdAt,value
2018-09-14T00:01:12.162Z,2.80
2018-09-14T00:03:48.873Z,3.07
2018-09-14T00:06:25.224Z,3.27
2018-09-14T00:09:01.666Z,3.13
2018-09-14T00:11:38.266Z,3.50
2018-09-14T00:14:14.591Z,2.77
2018-09-14T00:16:51.322Z,2.63
2018-09-14T00:19:27.848Z,2.43
2018-09-14T00:22:04.337Z,2.83
2018-09-14T00:24:40.808Z,2.83
2018-09-14T00:27:17.228Z,2.37
2018-09-14T00:29:53.641Z,2.33
2018-09-14T00:32:30.108Z,2.40
2018-09-14T00:35:06.857Z,2.50
2018-09-14T00:37:43.192Z,3.47
2018-09-14T00:40:19.674Z,2.73
2018-09-14T00:42:56.167Z,2.43
2018-09-14T00:45:32.663Z,2.30
2018-09-14T00:48:09.066Z,1.80
2018-09-14T00:50:45.605Z,2.33
2018-09-14T00:53:22.052Z,2.47
2018-09-14T00:55:58.498Z,2.20
2018-09-14T00:58:34.932Z,2.60
2018-09-14T01:01:11.352Z,2.30
2018-09-14T01:03:47.664Z,2.40
2018-09-14T01:06:24.161Z,2.30
2018-09-14T01:09:00.505Z,1.90
2018-09-14T01:11:37.022Z,2.20
2018-09-14T01:14:13.438Z,2.37
2018-09-14T01:16:49.914Z,2.00
2018-09-14T01:19:26.982Z,2.50
2018-09-14T01:22:03.462Z,2.13
2018-09-14T01:24:39.846Z,2.90
2018-09-14T01:27:16.300Z,3.30
2018-09-14T01:29:52.754Z,2.77
2018-09-14T01:32:29.282Z,2.57
2018-09-14T01:35:09.817Z,2.80
2018-09-14T01:37:46.100Z,2.63
2018-09-14T01:40:22.543Z,3.23
2018-09-14T01:42:58.888Z,2.90
2018-09-14T01:45:35.354Z,3.13
2018-09-14T01:48:11.850Z,3.00
2018-09-14T01:50:48.205Z,3.13
2018-09-14T01:53:24.654Z,3.47
2018-09-14T01:56:01.141Z,3.30
2018-09-14T01:58:37.593Z,3.87
2018-09-14T02:01:14.084Z,3.57
2018-09-14T02:03:50.567Z,4.17
2018-09-14T02:06:27.558Z,3.30
2018-09-14T02:09:04.612Z,3.90
2018-09-14T02:11:41.023Z,3.10
2018-09-14T02:14:17.423Z,3.53
2018-09-14T02:16:53.899Z,3.90
2018-09-14T02:19:30.368Z,4.07
2018-09-14T02:22:07.726Z,3.60
2018-09-14T02:24:44.214Z,4.13
2018-09-14T02:27:20.580Z,3.63
2018-09-14T02:29:57.136Z,3.87
2018-09-14T02:32:33.412Z,4.00
2018-09-14T02:35:09.887Z,3.30
2018-09-14T02:37:46.348Z,3.90
2018-09-14T02:40:22.833Z,4.10
2018-09-14T02:42:59.315Z,4.27
2018-09-14T02:45:35.716Z,4.80
2018-09-14T02:48:12.053Z,4.50
2018-09-14T02:50:48.279Z,3.80
2018-09-14T02:53:24.859Z,3.90
2018-09-14T02:56:01.225Z,3.77
2018-09-14T02:58:37.647Z,4.33
2018-09-14T03:01:14.042Z,4.60
2018-09-14T03:03:50.727Z,4.30
2018-09-14T03:06:27.103Z,3.77
2018-09-14T03:09:03.919Z,3.70
2018-09-14T03:11:40.308Z,4.47
2018-09-14T03:14:16.849Z,4.40
2018-09-14T03:16:53.228Z,4.03
2018-09-14T03:19:29.632Z,5.37
2018-09-14T03:22:06.048Z,3.30
2018-09-14T03:24:42.464Z,3.13
2018-09-14T03:27:18.950Z,3.80
2018-09-14T03:29:55.713Z,3.70
2018-09-14T03:32:32.110Z,3.97
2018-09-14T03:35:08.647Z,3.77
2018-09-14T03:37:45.171Z,4.67
2018-09-14T03:40:21.600Z,5.37
2018-09-14T03:42:58.009Z,5.87
2018-09-14T03:45:34.452Z,5.23
2018-09-14T03:48:10.762Z,6.30
2018-09-14T03:50:47.308Z,6.60
2018-09-14T03:53:23.728Z,5.60
2018-09-14T03:56:00.142Z,5.60
2018-09-14T03:58:36.506Z,6.03
2018-09-14T04:01:13.014Z,6.47
2018-09-14T04:03:49.415Z,6.13
2018-09-14T04:06:25.837Z,6.20
2018-09-14T04:09:02.345Z,6.83
2018-09-14T04:11:38.828Z,6.90
2018-09-14T04:14:15.268Z,6.50
2018-09-14T04:16:51.760Z,6.90
2018-09-14T04:19:28.213Z,5.80
2018-09-14T04:22:04.658Z,6.00
2018-09-14T04:24:41.032Z,6.27
2018-09-14T04:27:24.128Z,6.10
2018-09-14T04:30:00.426Z,5.90
2018-09-14T04:32:36.827Z,6.93
2018-09-14T04:35:14.232Z,6.57
2018-09-14T04:37:50.659Z,6.53
2018-09-14T04:40:27.137Z,6.57
2018-09-14T04:43:03.644Z,6.43
2018-09-14T04:45:40.051Z,7.63
2018-09-14T04:48:16.565Z,6.30
2018-09-14T04:50:52.890Z,6.33
2018-09-14T04:53:29.805Z,7.03
2018-09-14T04:56:07.016Z,6.37
2018-09-14T04:58:43.385Z,6.43
2018-09-14T05:01:19.916Z,5.60
2018-09-14T05:03:56.339Z,6.90
2018-09-14T05:06:32.851Z,5.70
2018-09-14T05:09:09.730Z,6.47
2018-09-14T05:11:46.009Z,7.40
2018-09-14T05:14:22.529Z,5.97
2018-09-14T05:16:58.951Z,5.80
2018-09-14T05:19:35.465Z,6.00
2018-09-14T05:22:11.901Z,5.80
2018-09-14T05:24:48.406Z,5.63
2018-09-14T05:27:24.857Z,6.67
2018-09-14T05:30:01.776Z,5.27
2018-09-14T05:32:38.187Z,6.23
2018-09-14T05:35:14.648Z,5.80
2018-09-14T05:37:51.255Z,5.30
2018-09-14T05:40:28.487Z,5.03
2018-09-14T05:43:04.974Z,4.47
2018-09-14T05:45:41.468Z,5.50
2018-09-14T05:48:17.908Z,4.87
2018-09-14T05:50:54.412Z,5.50
2018-09-14T05:53:30.841Z,5.23
2018-09-14T05:56:07.560Z,5.77
2018-09-14T05:58:44.013Z,5.53
2018-09-14T06:01:20.490Z,4.90
2018-09-14T06:03:56.972Z,4.70
2018-09-14T06:06:33.385Z,4.53
2018-09-14T06:09:11.907Z,5.50
2018-09-14T06:11:48.200Z,5.00
2018-09-14T06:14:24.622Z,4.83
2018-09-14T06:17:01.125Z,4.37
2018-09-14T06:19:37.456Z,5.23
2018-09-14T06:22:14.480Z,5.93
2018-09-14T06:24:50.939Z,7.43
2018-09-14T06:27:27.317Z,6.90
2018-09-14T06:30:03.793Z,16.10
2018-09-14T06:32:40.191Z,6.30
2018-09-14T06:35:16.745Z,6.30
2018-09-14T06:37:53.151Z,6.57
2018-09-14T06:40:29.446Z,4.80
2018-09-14T06:43:05.890Z,5.73
2018-09-14T06:45:42.383Z,5.17
2018-09-14T06:48:18.815Z,5.47
2018-09-14T06:50:55.320Z,4.93
2018-09-14T06:53:31.671Z,7.03
2018-09-14T06:56:08.216Z,6.07
2018-09-14T06:58:44.695Z,6.13
2018-09-14T07:01:21.239Z,6.60
2018-09-14T07:03:57.632Z,5.90
2018-09-14T07:06:34.518Z,5.90
2018-09-14T07:09:10.885Z,6.37
2018-09-14T07:11:47.162Z,7.20
2018-09-14T07:14:24.063Z,6.20
2018-09-14T07:17:00.519Z,5.63
2018-09-14T07:19:36.924Z,5.87
2018-09-14T07:22:13.297Z,6.27
2018-09-14T07:24:51.265Z,6.00
2018-09-14T07:27:27.578Z,5.67
2018-09-14T07:30:04.072Z,6.47
2018-09-14T07:32:41.428Z,6.10
2018-09-14T07:35:17.827Z,6.30
2018-09-14T07:37:54.308Z,5.70
2018-09-14T07:40:30.735Z,6.97
2018-09-14T07:43:07.323Z,6.43
2018-09-14T07:45:43.707Z,6.00
2018-09-14T07:48:20.120Z,6.13
2018-09-14T07:50:56.637Z,5.80
2018-09-14T07:53:33.044Z,7.13
2018-09-14T07:56:09.479Z,6.23
2018-09-14T07:58:45.886Z,6.10
2018-09-14T08:01:22.369Z,7.10
2018-09-14T08:03:58.665Z,5.90
2018-09-14T08:06:34.984Z,7.00
2018-09-14T08:09:12.985Z,6.50
2018-09-14T08:11:49.557Z,6.17
2018-09-14T08:14:25.808Z,7.30
2018-09-14T08:17:02.318Z,7.33
2018-09-14T08:19:39.032Z,6.60
2018-09-14T08:22:15.475Z,6.17
2018-09-14T08:24:51.890Z,6.63
2018-09-14T08:27:28.368Z,7.43
2018-09-14T08:30:04.819Z,7.00
2018-09-14T08:32:41.342Z,6.77
2018-09-14T08:35:17.948Z,6.57
2018-09-14T08:37:54.316Z,6.60
2018-09-14T08:40:31.303Z,5.93
2018-09-14T08:43:07.539Z,6.10
2018-09-14T08:45:43.947Z,6.40
2018-09-14T08:48:22.609Z,6.70
2018-09-14T08:50:58.857Z,6.90
2018-09-14T08:53:35.379Z,6.00
2018-09-14T08:56:11.795Z,6.40
2018-09-14T08:58:48.274Z,6.90
2018-09-14T09:01:24.731Z,6.07
2018-09-14T09:04:01.210Z,5.60
2018-09-14T09:06:37.693Z,6.70
2018-09-14T09:09:14.422Z,6.50
2018-09-14T09:11:50.733Z,5.80
2018-09-14T09:14:27.255Z,6.33
2018-09-14T09:17:03.762Z,6.20
2018-09-14T09:19:40.208Z,6.43
2018-09-14T09:22:17.471Z,6.23
2018-09-14T09:24:53.899Z,6.50
2018-09-14T09:27:30.347Z,5.87
2018-09-14T09:30:06.958Z,6.13
2018-09-14T09:32:43.678Z,5.83
2018-09-14T09:35:20.021Z,5.43
2018-09-14T09:37:56.480Z,5.47
2018-09-14T09:40:32.984Z,5.30
2018-09-14T09:43:28.577Z,5.80
2018-09-14T09:46:04.917Z,4.30
2018-09-14T09:48:41.443Z,5.80
2018-09-14T09:51:18.015Z,5.40
2018-09-14T09:53:54.223Z,4.90
2018-09-14T09:56:30.967Z,5.00
2018-09-14T09:59:07.292Z,5.60
2018-09-14T10:01:48.864Z,5.03
2018-09-14T10:04:31.071Z,4.07
2018-09-14T10:07:08.341Z,3.80
2018-09-14T10:09:45.625Z,3.73
2018-09-14T10:12:22.829Z,4.30
2018-09-14T10:15:00.007Z,4.10
2018-09-14T10:17:37.046Z,3.43
2018-09-14T10:20:16.338Z,3.10
2018-09-14T10:22:55.385Z,2.70
2018-09-14T10:25:32.474Z,3.70
2018-09-14T10:28:09.617Z,3.90
2018-09-14T10:30:46.820Z,3.57
2018-09-14T10:33:23.231Z,3.50
2018-09-14T10:35:59.762Z,3.07
2018-09-14T10:38:36.295Z,4.00
2018-09-14T10:41:12.747Z,2.57
2018-09-14T10:43:49.595Z,2.60
2018-09-14T10:46:26.123Z,2.47
2018-09-14T10:49:02.657Z,2.70
2018-09-14T10:51:39.258Z,3.33
2018-09-14T10:54:15.644Z,2.97
2018-09-14T10:56:52.112Z,3.03
2018-09-14T10:59:28.529Z,2.83
2018-09-14T11:02:05.754Z,2.60
2018-09-14T11:04:42.051Z,2.97
2018-09-14T11:07:18.582Z,2.60
2018-09-14T11:09:54.904Z,2.60
2018-09-14T11:12:31.436Z,2.30
2018-09-14T11:15:07.763Z,2.37
2018-09-14T11:17:44.130Z,2.07
2018-09-14T11:20:20.599Z,2.50
2018-09-14T11:22:56.937Z,2.93
2018-09-14T11:25:33.351Z,3.80
2018-09-14T11:28:09.653Z,2.87
2018-09-14T11:30:46.143Z,3.30
2018-09-14T11:33:22.865Z,2.30
2018-09-14T11:35:59.094Z,2.40
2018-09-14T11:38:35.581Z,2.70
2018-09-14T11:41:11.834Z,1.87
2018-09-14T11:43:48.192Z,2.37
2018-09-14T11:46:24.697Z,2.23
2018-09-14T11:49:01.795Z,2.43
2018-09-14T11:51:38.315Z,1.60
2018-09-14T11:54:14.896Z,2.40
2018-09-14T11:56:51.206Z,1.70
2018-09-14T11:59:27.743Z,2.40
2018-09-14T12:02:04.272Z,2.10
2018-09-14T12:04:40.703Z,2.07
2018-09-14T12:07:17.219Z,2.37
2018-09-14T12:09:53.729Z,2.20
2018-09-14T12:12:30.859Z,2.20
2018-09-14T12:15:07.274Z,2.07
2018-09-14T12:17:43.591Z,2.40
2018-09-14T12:20:19.871Z,2.30
2018-09-14T12:22:56.241Z,2.20
2018-09-14T12:25:32.832Z,1.87
2018-09-14T12:28:10.477Z,2.47
2018-09-14T12:30:46.944Z,2.20
2018-09-14T12:33:23.354Z,2.10
2018-09-14T12:35:59.843Z,1.90
2018-09-14T12:38:36.230Z,1.67
2018-09-14T12:41:12.728Z,1.37
2018-09-14T12:43:49.099Z,1.80
2018-09-14T12:46:25.623Z,2.07
2018-09-14T12:49:02.087Z,1.70
2018-09-14T12:51:38.462Z,1.93
2018-09-14T12:54:14.922Z,2.03
2018-09-14T12:56:51.593Z,1.63
2018-09-14T12:59:28.243Z,1.83
2018-09-14T13:02:04.542Z,2.00
2018-09-14T13:04:41.121Z,1.70
2018-09-14T13:07:17.633Z,1.90
2018-09-14T13:09:54.000Z,2.00
2018-09-14T13:12:29.558Z,1.90
2018-09-14T13:15:05.987Z,1.87
2018-09-14T13:17:42.661Z,2.37
2018-09-14T13:20:19.172Z,1.67
2018-09-14T13:22:56.134Z,1.20
2018-09-14T13:25:32.645Z,2.03
2018-09-14T13:28:09.184Z,1.60
2018-09-14T13:30:45.669Z,2.13
2018-09-14T13:33:22.214Z,1.53
2018-09-14T13:35:58.492Z,1.80
2018-09-14T13:38:34.929Z,2.17
2018-09-14T13:41:11.423Z,1.73
2018-09-14T13:43:47.881Z,2.13
2018-09-14T13:46:24.360Z,2.63
2018-09-14T13:49:00.870Z,1.80
2018-09-14T13:51:37.630Z,1.83
2018-09-14T13:54:14.039Z,1.57
2018-09-14T13:56:50.533Z,2.20
2018-09-14T13:59:27.111Z,1.90
2018-09-14T14:02:03.448Z,1.90
2018-09-14T14:04:39.977Z,2.07
2018-09-14T14:07:16.561Z,1.63
2018-09-14T14:09:53.230Z,1.83
2018-09-14T14:12:29.588Z,2.07
2018-09-14T14:15:06.264Z,1.50
2018-09-14T14:17:42.722Z,1.53
2018-09-14T14:20:19.140Z,1.33
2018-09-14T14:22:55.713Z,1.63
2018-09-14T14:25:32.725Z,1.53
2018-09-14T14:28:09.276Z,1.53
2018-09-14T14:30:45.744Z,1.70
2018-09-14T14:33:22.120Z,1.67
2018-09-14T14:35:58.540Z,2.07
2018-09-14T14:38:35.089Z,1.67
2018-09-14T14:41:11.628Z,1.83
2018-09-14T14:43:48.095Z,1.43
2018-09-14T14:46:24.447Z,1.60
2018-09-14T14:49:00.972Z,1.67
2018-09-14T14:51:37.538Z,2.17
2018-09-14T14:54:13.905Z,1.60
2018-09-14T14:56:50.547Z,1.43
2018-09-14T14:59:26.942Z,1.53
2018-09-14T15:02:03.499Z,1.60
2018-09-14T15:04:39.860Z,1.63
2018-09-14T15:07:19.773Z,1.53
2018-09-14T15:09:56.418Z,1.50
2018-09-14T15:12:32.714Z,1.50
2018-09-14T15:15:09.243Z,1.30
2018-09-14T15:17:45.998Z,2.10
2018-09-14T15:20:22.386Z,1.90
2018-09-14T15:22:59.404Z,1.33
2018-09-14T15:25:35.783Z,1.60
2018-09-14T15:28:12.266Z,1.10
2018-09-14T15:30:48.698Z,1.63
2018-09-14T15:33:25.134Z,1.67
2018-09-14T15:36:02.192Z,1.63
2018-09-14T15:38:38.590Z,1.93
2018-09-14T15:41:15.006Z,1.70
2018-09-14T15:43:52.376Z,1.70
2018-09-14T15:46:28.895Z,2.10
2018-09-14T15:49:05.700Z,1.67
2018-09-14T15:51:42.712Z,2.10
2018-09-14T15:54:19.028Z,2.40
2018-09-14T15:56:55.612Z,1.77
2018-09-14T15:59:32.183Z,1.83
2018-09-14T16:02:08.759Z,1.60
2018-09-14T16:04:45.052Z,1.70
2018-09-14T16:07:21.697Z,1.70
2018-09-14T16:09:58.236Z,1.50
2018-09-14T16:12:34.757Z,1.83
2018-09-14T16:15:11.389Z,2.13
2018-09-14T16:17:48.005Z,1.90
2018-09-14T16:20:24.302Z,1.97
2018-09-14T16:23:00.775Z,2.17
2018-09-14T16:25:37.219Z,1.97
2018-09-14T16:28:13.764Z,2.27
2018-09-14T16:30:50.159Z,1.80
2018-09-14T16:33:26.733Z,1.50
2018-09-14T16:36:03.267Z,2.00
2018-09-14T16:38:39.747Z,2.00
2018-09-14T16:41:16.904Z,1.67
2018-09-14T16:43:53.399Z,1.60
2018-09-14T16:46:30.637Z,2.13
2018-09-14T16:49:07.800Z,2.23
2018-09-14T16:51:44.186Z,2.30
2018-09-14T16:54:20.511Z,2.53
2018-09-14T16:56:56.764Z,2.27
2018-09-14T16:59:33.326Z,2.00
2018-09-14T17:02:09.807Z,2.03
2018-09-14T17:04:46.214Z,2.57
2018-09-14T17:07:22.958Z,2.10
2018-09-14T17:09:59.215Z,2.57
2018-09-14T17:12:35.635Z,2.10
2018-09-14T17:15:12.051Z,2.33
2018-09-14T17:17:48.415Z,1.80
2018-09-14T17:20:24.867Z,2.23
2018-09-14T17:23:01.517Z,2.63
2018-09-14T17:25:39.510Z,2.13
2018-09-14T17:28:16.928Z,2.77
2018-09-14T17:30:53.360Z,2.57
2018-09-14T17:33:29.859Z,2.53
2018-09-14T17:36:06.280Z,2.83
2018-09-14T17:38:42.805Z,1.93
2018-09-14T17:41:19.472Z,2.67
2018-09-14T17:43:55.992Z,1.90
2018-09-14T17:46:32.332Z,2.50
2018-09-14T17:49:08.893Z,2.33
2018-09-14T17:51:45.278Z,2.37
2018-09-14T17:54:21.809Z,2.53
2018-09-14T17:56:58.254Z,3.10
2018-09-14T17:59:34.750Z,2.90
2018-09-14T18:02:11.270Z,2.40
2018-09-14T18:04:47.704Z,2.10
2018-09-14T18:07:24.101Z,2.60
2018-09-14T18:10:00.604Z,2.17
2018-09-14T18:12:37.490Z,2.37
2018-09-14T18:15:14.051Z,3.07
2018-09-14T18:17:50.467Z,1.90
2018-09-14T18:20:26.962Z,2.23
2018-09-14T18:23:04.126Z,2.93
2018-09-14T18:25:40.630Z,2.67
2018-09-14T18:28:16.947Z,2.70
2018-09-14T18:30:53.905Z,1.77
2018-09-14T18:33:30.722Z,2.80
2018-09-14T18:36:07.345Z,2.80
2018-09-14T18:38:43.685Z,3.07
2018-09-14T18:41:21.101Z,2.10
2018-09-14T18:43:57.655Z,2.67
2018-09-14T18:46:34.211Z,3.70
2018-09-14T18:49:11.191Z,3.23
2018-09-14T18:51:47.519Z,3.17
2018-09-14T18:54:23.911Z,3.13
2018-09-14T18:57:00.518Z,3.10
2018-09-14T18:59:36.937Z,2.93
2018-09-14T19:02:13.610Z,2.67
2018-09-14T19:04:49.932Z,2.53
2018-09-14T19:07:26.415Z,3.80
2018-09-14T19:10:02.930Z,2.93
2018-09-14T19:12:39.704Z,2.83
2018-09-14T19:15:17.316Z,2.70
2018-09-14T19:17:53.640Z,2.33
2018-09-14T19:20:30.645Z,2.53
2018-09-14T19:23:07.677Z,2.93
2018-09-14T19:25:44.375Z,2.13
2018-09-14T19:28:20.829Z,2.47
2018-09-14T19:30:57.419Z,2.50
2018-09-14T19:33:33.928Z,2.40
2018-09-14T19:36:10.427Z,2.57
2018-09-14T19:38:46.831Z,2.70
2018-09-14T19:41:23.967Z,3.30
2018-09-14T19:44:00.254Z,2.53
2018-09-14T19:46:37.025Z,3.00
2018-09-14T19:49:13.403Z,2.87
2018-09-14T19:51:49.816Z,2.70
2018-09-14T19:54:26.647Z,3.00
2018-09-14T19:57:03.010Z,2.70
2018-09-14T19:59:39.422Z,2.90
2018-09-14T20:02:15.978Z,2.60
2018-09-14T20:04:52.550Z,3.10
2018-09-14T20:07:29.506Z,5.43
2018-09-14T20:10:05.998Z,2.73
2018-09-14T20:12:42.524Z,4.30
2018-09-14T20:15:19.219Z,3.10
2018-09-14T20:17:55.693Z,3.47
2018-09-14T20:20:32.014Z,3.33
2018-09-14T20:23:08.777Z,3.10
2018-09-14T20:25:45.156Z,3.30
2018-09-14T20:28:21.630Z,3.60
2018-09-14T20:30:58.138Z,4.07
2018-09-14T20:33:35.599Z,3.60
2018-09-14T20:36:11.972Z,3.40
2018-09-14T20:38:48.504Z,3.53
2018-09-14T20:41:25.029Z,3.23
2018-09-14T20:44:01.467Z,3.37
2018-09-14T20:46:38.869Z,3.00
2018-09-14T20:49:16.711Z,3.10
2018-09-14T20:51:54.846Z,3.93
2018-09-14T20:54:32.435Z,3.07
2018-09-14T20:57:10.782Z,3.63
2018-09-14T20:59:47.755Z,3.73
2018-09-14T21:02:25.283Z,2.90
2018-09-14T21:05:01.913Z,3.03
2018-09-14T21:07:40.014Z,2.30
2018-09-14T21:10:17.649Z,2.90
2018-09-14T21:12:56.302Z,2.73
2018-09-14T21:15:33.637Z,3.00
2018-09-14T21:18:10.258Z,3.13
2018-09-14T21:20:47.564Z,3.20
2018-09-14T21:23:24.019Z,3.30
2018-09-14T21:26:00.791Z,3.17
2018-09-14T21:28:37.310Z,2.70
2018-09-14T21:31:13.750Z,3.80
2018-09-14T21:33:50.350Z,3.23
2018-09-14T21:36:26.958Z,3.47
2018-09-14T21:39:05.273Z,3.60
2018-09-14T21:41:41.813Z,3.47
2018-09-14T21:44:18.287Z,4.40
2018-09-14T21:46:54.779Z,3.97
2018-09-14T21:49:31.415Z,3.90
2018-09-14T21:52:08.051Z,3.90
2018-09-14T21:54:44.447Z,4.00
2018-09-14T21:57:20.830Z,3.50
2018-09-14T21:59:57.942Z,3.67
2018-09-14T22:02:34.261Z,4.03
2018-09-14T22:05:10.708Z,4.60
2018-09-14T22:07:47.443Z,4.30
2018-09-14T22:10:24.075Z,4.80
2018-09-14T22:13:01.041Z,4.83
2018-09-14T22:15:37.405Z,4.30
2018-09-14T22:18:13.824Z,4.60
2018-09-14T22:20:50.191Z,4.50
2018-09-14T22:23:26.730Z,4.30
2018-09-14T22:26:03.236Z,4.27
2018-09-14T22:28:39.555Z,3.70
2018-09-14T22:31:16.003Z,4.60
2018-09-14T22:33:52.594Z,4.57
2018-09-14T22:36:29.169Z,3.40
2018-09-14T22:39:09.314Z,3.37
2018-09-14T22:41:45.639Z,4.07
2018-09-14T22:44:22.539Z,3.93
2018-09-14T22:46:59.004Z,4.37
2018-09-14T22:49:35.607Z,3.57
2018-09-14T22:52:12.168Z,3.83
2018-09-14T22:54:48.729Z,3.83
2018-09-14T22:57:25.414Z,3.30
2018-09-14T23:00:02.296Z,3.40
2018-09-14T23:02:38.774Z,4.07
2018-09-14T23:05:15.330Z,3.30
2018-09-14T23:07:52.061Z,4.07
2018-09-14T23:10:29.419Z,2.70
2018-09-14T23:13:05.990Z,3.50
2018-09-14T23:15:49.418Z,3.93
2018-09-14T23:18:26.045Z,3.90
2018-09-14T23:21:02.620Z,3.57
2018-09-14T23:23:39.070Z,2.90
2018-09-14T23:26:18.898Z,3.77
2018-09-14T23:28:55.627Z,3.70
2018-09-14T23:31:32.002Z,4.10
2018-09-14T23:34:08.546Z,3.30
2018-09-14T23:36:45.067Z,3.37
2018-09-14T23:39:21.587Z,4.30
2018-09-14T23:41:58.179Z,3.90
2018-09-14T23:44:34.573Z,4.13
2018-09-14T23:47:11.569Z,3.50
2018-09-14T23:49:47.928Z,4.00
2018-09-14T23:52:24.444Z,3.87
2018-09-14T23:55:00.850Z,3.50
2018-09-14T23:57:37.388Z,3.63
